createdAt,value
2019-05-18T00:01:12.427Z,13.87
2019-05-18T00:03:41.305Z,13.17
2019-05-18T00:06:10.116Z,15.10
2019-05-18T00:08:38.542Z,14.63
2019-05-18T00:11:06.957Z,13.63
2019-05-18T00:13:35.697Z,14.03
2019-05-18T00:16:04.240Z,13.53
2019-05-18T00:18:32.653Z,12.60
2019-05-18T00:21:01.060Z,14.83
2019-05-18T00:23:29.718Z,15.23
2019-05-18T00:25:58.136Z,15.20
2019-05-18T00:28:26.712Z,14.30
2019-05-18T00:30:55.130Z,14.00
2019-05-18T00:33:23.880Z,15.27
2019-05-18T00:35:52.562Z,15.20
2019-05-18T00:38:20.957Z,14.17
2019-05-18T00:40:49.626Z,14.60
2019-05-18T00:43:18.040Z,16.10
2019-05-18T00:45:46.445Z,15.03
2019-05-18T00:48:14.869Z,14.80
2019-05-18T00:50:43.717Z,14.30
2019-05-18T00:53:12.457Z,14.10
2019-05-18T00:55:40.864Z,15.60
2019-05-18T00:58:09.289Z,14.33
2019-05-18T01:00:37.705Z,15.70
2019-05-18T01:03:06.205Z,16.57
2019-05-18T01:05:37.842Z,22.17
2019-05-18T01:08:04.763Z,20.17
2019-05-18T01:10:33.501Z,17.87
2019-05-18T01:13:01.920Z,18.37
2019-05-18T01:15:30.675Z,16.63
2019-05-18T01:18:02.144Z,15.37
2019-05-18T01:20:29.481Z,16.33
2019-05-18T01:22:58.162Z,15.83
2019-05-18T01:25:26.595Z,15.97
2019-05-18T01:27:55.338Z,15.60
2019-05-18T01:30:24.298Z,15.53
2019-05-18T01:32:52.701Z,14.57
2019-05-18T01:35:21.283Z,16.23
2019-05-18T01:37:49.998Z,14.40
2019-05-18T01:40:18.997Z,14.77
2019-05-18T01:42:47.408Z,14.00
2019-05-18T01:45:17.592Z,15.40
2019-05-18T01:47:46.497Z,14.70
2019-05-18T01:50:15.499Z,13.37
2019-05-18T01:52:44.305Z,14.70
2019-05-18T01:55:13.281Z,14.70
2019-05-18T01:57:41.970Z,14.30
2019-05-18T02:00:11.216Z,14.73
2019-05-18T02:02:39.639Z,12.50
2019-05-18T02:05:08.423Z,12.97
2019-05-18T02:07:37.233Z,13.30
2019-05-18T02:10:06.683Z,13.07
2019-05-18T02:12:35.103Z,15.40
2019-05-18T02:15:04.538Z,14.40
2019-05-18T02:17:33.029Z,14.53
2019-05-18T02:20:01.438Z,12.73
2019-05-18T02:22:30.198Z,14.87
2019-05-18T02:24:58.885Z,14.50
2019-05-18T02:27:27.304Z,15.63
2019-05-18T02:29:55.772Z,15.00
2019-05-18T02:32:24.181Z,14.47
2019-05-18T02:34:52.922Z,15.50
2019-05-18T02:37:21.337Z,14.53
2019-05-18T02:39:51.386Z,15.47
2019-05-18T02:42:19.809Z,14.80
2019-05-18T02:44:48.281Z,15.33
2019-05-18T02:47:17.188Z,13.47
2019-05-18T02:49:45.870Z,13.53
2019-05-18T02:52:14.289Z,15.27
2019-05-18T02:54:42.698Z,14.33
2019-05-18T02:57:11.126Z,14.43
2019-05-18T02:59:39.534Z,14.90
2019-05-18T03:02:08.119Z,14.00
2019-05-18T03:04:36.813Z,13.53
2019-05-18T03:07:05.277Z,13.77
2019-05-18T03:09:33.757Z,15.40
2019-05-18T03:12:02.545Z,15.67
2019-05-18T03:14:31.238Z,15.30
2019-05-18T03:16:59.712Z,14.67
2019-05-18T03:19:28.410Z,14.00
2019-05-18T03:22:00.743Z,13.37
2019-05-18T03:24:26.960Z,13.67
2019-05-18T03:26:55.717Z,14.23
2019-05-18T03:29:24.115Z,14.20
2019-05-18T03:31:52.545Z,14.57
2019-05-18T03:34:20.958Z,14.40
2019-05-18T03:36:49.650Z,14.80
2019-05-18T03:39:18.070Z,14.90
2019-05-18T03:41:46.471Z,13.10
2019-05-18T03:44:15.204Z,14.83
2019-05-18T03:46:43.609Z,14.97
2019-05-18T03:49:25.974Z,14.33
2019-05-18T03:51:42.508Z,13.57
2019-05-18T03:54:10.983Z,14.07
2019-05-18T03:56:39.428Z,12.93
2019-05-18T03:59:08.160Z,13.90
2019-05-18T04:01:36.862Z,14.53
2019-05-18T04:04:05.535Z,13.67
2019-05-18T04:06:33.937Z,14.30
2019-05-18T04:09:02.820Z,14.50
2019-05-18T04:11:31.222Z,16.60
2019-05-18T04:13:59.895Z,16.40
2019-05-18T04:16:28.306Z,16.50
2019-05-18T04:18:56.752Z,16.60
2019-05-18T04:21:25.205Z,16.87
2019-05-18T04:23:53.621Z,17.17
2019-05-18T04:26:22.031Z,17.53
2019-05-18T04:28:50.816Z,16.00
2019-05-18T04:31:19.282Z,16.10
2019-05-18T04:33:47.701Z,17.80
2019-05-18T04:36:16.115Z,18.17
2019-05-18T04:38:44.520Z,18.60
2019-05-18T04:41:12.933Z,18.57
2019-05-18T04:43:41.345Z,19.30
2019-05-18T04:46:09.760Z,18.90
2019-05-18T04:48:38.181Z,19.30
2019-05-18T04:51:06.589Z,17.67
2019-05-18T04:53:35.013Z,18.53
2019-05-18T04:56:03.420Z,18.43
2019-05-18T04:58:31.841Z,17.87
2019-05-18T05:01:00.587Z,18.03
2019-05-18T05:03:29.275Z,18.80
2019-05-18T05:05:57.681Z,17.80
2019-05-18T05:08:26.098Z,18.83
2019-05-18T05:10:54.505Z,19.10
2019-05-18T05:13:22.926Z,18.20
2019-05-18T05:15:51.598Z,18.70
2019-05-18T05:18:20.277Z,18.07
2019-05-18T05:20:48.964Z,18.77
2019-05-18T05:23:17.666Z,19.33
2019-05-18T05:25:46.073Z,18.40
2019-05-18T05:28:14.526Z,18.60
2019-05-18T05:30:42.934Z,18.00
2019-05-18T05:33:11.482Z,18.00
2019-05-18T05:35:39.888Z,17.70
2019-05-18T05:38:08.309Z,18.53
2019-05-18T05:40:37.072Z,18.97
2019-05-18T05:43:05.485Z,19.00
2019-05-18T05:45:33.961Z,17.03
2019-05-18T05:48:02.418Z,16.70
2019-05-18T05:50:36.124Z,18.40
2019-05-18T05:53:01.025Z,18.13
2019-05-18T05:55:29.433Z,17.30
2019-05-18T05:57:57.857Z,18.67
2019-05-18T06:00:26.590Z,17.77
2019-05-18T06:02:55.268Z,18.60
2019-05-18T06:05:23.949Z,16.80
2019-05-18T06:07:52.407Z,17.90
2019-05-18T06:10:20.820Z,15.90
2019-05-18T06:12:49.231Z,17.97
2019-05-18T06:15:18.773Z,17.57
2019-05-18T06:17:47.172Z,18.43
2019-05-18T06:20:15.790Z,16.80
2019-05-18T06:22:44.211Z,17.00
2019-05-18T06:25:12.863Z,18.47
2019-05-18T06:27:41.561Z,19.33
2019-05-18T06:30:11.270Z,19.20
2019-05-18T06:32:39.686Z,14.40
2019-05-18T06:35:08.860Z,17.13
2019-05-18T06:37:37.274Z,19.40
2019-05-18T06:40:07.732Z,15.97
2019-05-18T06:42:36.174Z,14.77
2019-05-18T06:45:09.213Z,17.17
2019-05-18T06:47:37.912Z,17.30
2019-05-18T06:50:11.705Z,15.67
2019-05-18T06:52:38.740Z,13.10
2019-05-18T06:55:07.735Z,15.40
2019-05-18T06:57:36.757Z,14.93
2019-05-18T07:00:11.081Z,11.97
2019-05-18T07:02:39.489Z,13.17
2019-05-18T07:05:08.145Z,12.07
2019-05-18T07:07:36.549Z,9.70
2019-05-18T07:10:07.041Z,12.73
2019-05-18T07:12:35.461Z,11.93
2019-05-18T07:15:06.849Z,11.00
2019-05-18T07:17:35.258Z,9.47
2019-05-18T07:20:05.121Z,12.10
2019-05-18T07:22:33.508Z,10.90
2019-05-18T07:25:02.274Z,13.30
2019-05-18T07:27:30.973Z,12.70
2019-05-18T07:29:59.385Z,13.90
2019-05-18T07:32:28.036Z,10.67
2019-05-18T07:34:56.859Z,8.70
2019-05-18T07:37:25.323Z,9.97
2019-05-18T07:39:54.101Z,9.17
2019-05-18T07:42:22.521Z,9.57
2019-05-18T07:44:50.982Z,8.70
2019-05-18T07:47:19.659Z,9.17
2019-05-18T07:49:48.081Z,8.80
2019-05-18T07:52:17.376Z,10.53
2019-05-18T07:54:46.004Z,10.10
2019-05-18T07:57:14.721Z,9.53
2019-05-18T07:59:43.129Z,9.90
2019-05-18T08:02:11.789Z,10.50
2019-05-18T08:04:40.198Z,11.17
2019-05-18T08:07:08.868Z,9.43
2019-05-18T08:09:37.562Z,9.60
2019-05-18T08:12:05.982Z,9.50
2019-05-18T08:14:34.384Z,10.40
2019-05-18T08:17:02.812Z,9.17
2019-05-18T08:19:31.217Z,9.73
2019-05-18T08:21:59.625Z,9.70
2019-05-18T08:24:28.359Z,8.40
2019-05-18T08:26:56.799Z,8.23
2019-05-18T08:29:25.274Z,9.20
2019-05-18T08:31:53.692Z,8.10
2019-05-18T08:34:22.132Z,9.03
2019-05-18T08:36:50.893Z,8.10
2019-05-18T08:39:19.573Z,8.67
2019-05-18T08:41:48.859Z,8.13
2019-05-18T08:44:17.581Z,6.80
2019-05-18T08:46:45.989Z,7.33
2019-05-18T08:49:14.406Z,6.80
2019-05-18T08:51:42.814Z,6.87
2019-05-18T08:54:11.210Z,6.80
2019-05-18T08:56:39.713Z,6.10
2019-05-18T08:59:08.189Z,6.30
2019-05-18T09:01:36.630Z,6.00
2019-05-18T09:04:05.369Z,5.50
2019-05-18T09:06:33.786Z,5.97
2019-05-18T09:09:03.779Z,5.73
2019-05-18T09:11:32.537Z,5.73
2019-05-18T09:14:00.937Z,5.30
2019-05-18T09:16:29.613Z,6.27
2019-05-18T09:18:58.013Z,7.27
2019-05-18T09:21:26.425Z,6.13
2019-05-18T09:23:54.830Z,7.20
2019-05-18T09:26:23.269Z,6.57
2019-05-18T09:28:51.945Z,6.17
2019-05-18T09:31:20.411Z,5.33
2019-05-18T09:33:48.829Z,5.60
2019-05-18T09:36:17.251Z,5.60
2019-05-18T09:38:45.719Z,5.40
2019-05-18T09:41:14.488Z,5.67
2019-05-18T09:43:43.251Z,5.80
2019-05-18T09:46:11.663Z,5.47
2019-05-18T09:48:40.077Z,4.27
2019-05-18T09:51:08.814Z,4.07
2019-05-18T09:53:50.471Z,4.37
2019-05-18T09:56:07.731Z,3.40
2019-05-18T09:58:36.194Z,6.20
2019-05-18T10:01:04.591Z,4.50
2019-05-18T10:03:33.285Z,4.10
2019-05-18T10:06:01.673Z,3.87
2019-05-18T10:08:30.093Z,4.10
2019-05-18T10:10:58.496Z,3.70
2019-05-18T10:13:26.904Z,5.53
2019-05-18T10:15:55.308Z,5.20
2019-05-18T10:18:23.726Z,4.30
2019-05-18T10:20:52.120Z,4.83
2019-05-18T10:23:20.537Z,6.20
2019-05-18T10:25:49.234Z,6.80
2019-05-18T10:28:17.640Z,4.90
2019-05-18T10:30:46.044Z,6.70
2019-05-18T10:33:14.464Z,6.80
2019-05-18T10:35:43.182Z,6.30
2019-05-18T10:38:11.973Z,5.83
2019-05-18T10:40:40.851Z,5.90
2019-05-18T10:43:09.263Z,5.20
2019-05-18T10:45:37.750Z,5.30
2019-05-18T10:48:06.251Z,4.53
2019-05-18T10:50:34.711Z,5.70
2019-05-18T10:53:03.137Z,6.90
2019-05-18T10:55:31.556Z,5.87
2019-05-18T10:58:00.366Z,5.10
2019-05-18T11:00:28.783Z,4.87
2019-05-18T11:02:57.181Z,7.57
2019-05-18T11:05:25.643Z,4.60
2019-05-18T11:07:54.399Z,6.53
2019-05-18T11:10:23.045Z,4.50
2019-05-18T11:12:51.451Z,5.67
2019-05-18T11:15:20.750Z,7.37
2019-05-18T11:17:49.154Z,4.97
2019-05-18T11:20:18.206Z,4.70
2019-05-18T11:22:46.684Z,5.07
2019-05-18T11:25:15.457Z,6.30
2019-05-18T11:27:43.878Z,5.63
2019-05-18T11:30:13.038Z,5.27
2019-05-18T11:32:41.513Z,6.60
2019-05-18T11:35:10.701Z,5.73
2019-05-18T11:37:39.123Z,4.87
2019-05-18T11:40:08.885Z,4.70
2019-05-18T11:42:37.345Z,5.60
2019-05-18T11:45:10.392Z,6.13
2019-05-18T11:47:38.857Z,5.53
2019-05-18T11:50:08.741Z,5.70
2019-05-18T11:52:37.217Z,5.47
2019-05-18T11:55:06.853Z,6.63
2019-05-18T11:57:35.347Z,5.00
2019-05-18T12:00:06.117Z,4.00
2019-05-18T12:02:34.774Z,4.47
2019-05-18T12:05:03.448Z,5.03
2019-05-18T12:07:32.154Z,4.30
2019-05-18T12:10:00.558Z,5.60
2019-05-18T12:12:28.973Z,5.40
2019-05-18T12:14:57.715Z,4.20
2019-05-18T12:17:26.117Z,5.57
2019-05-18T12:19:54.524Z,4.90
2019-05-18T12:22:22.998Z,4.63
2019-05-18T12:24:51.407Z,3.67
2019-05-18T12:27:20.136Z,4.00
2019-05-18T12:29:48.545Z,3.97
2019-05-18T12:32:16.953Z,3.30
2019-05-18T12:34:45.570Z,3.80
2019-05-18T12:37:16.017Z,3.20
2019-05-18T12:39:44.457Z,3.77
2019-05-18T12:42:12.852Z,4.13
2019-05-18T12:44:41.265Z,4.30
2019-05-18T12:47:09.979Z,4.07
2019-05-18T12:49:38.389Z,3.17
2019-05-18T12:52:06.787Z,4.00
2019-05-18T12:54:46.210Z,4.60
2019-05-18T12:57:05.333Z,4.40
2019-05-18T12:59:34.117Z,3.60
2019-05-18T13:02:02.594Z,3.90
2019-05-18T13:04:31.006Z,4.03
2019-05-18T13:06:59.407Z,3.40
2019-05-18T13:09:27.821Z,3.87
2019-05-18T13:11:56.250Z,3.30
2019-05-18T13:14:24.927Z,4.30
2019-05-18T13:16:53.482Z,4.23
2019-05-18T13:19:22.301Z,4.23
2019-05-18T13:21:50.713Z,4.43
2019-05-18T13:24:19.129Z,4.10
2019-05-18T13:26:47.532Z,4.27
2019-05-18T13:29:15.941Z,3.87
2019-05-18T13:31:44.385Z,4.57
2019-05-18T13:34:13.157Z,3.50
2019-05-18T13:36:41.926Z,4.40
2019-05-18T13:39:10.702Z,4.00
2019-05-18T13:41:39.111Z,4.10
2019-05-18T13:44:07.592Z,3.90
2019-05-18T13:46:35.998Z,4.00
2019-05-18T13:49:04.426Z,3.63
2019-05-18T13:51:32.830Z,4.27
2019-05-18T13:54:01.233Z,4.30
2019-05-18T13:56:29.665Z,4.50
2019-05-18T13:58:58.382Z,4.00
2019-05-18T14:01:26.797Z,3.93
2019-05-18T14:03:55.542Z,4.20
2019-05-18T14:06:23.972Z,3.90
2019-05-18T14:08:52.713Z,4.00
2019-05-18T14:11:21.715Z,4.40
2019-05-18T14:13:50.143Z,3.77
2019-05-18T14:16:18.794Z,3.93
2019-05-18T14:18:47.498Z,3.90
2019-05-18T14:21:16.273Z,3.80
2019-05-18T14:23:45.455Z,4.10
2019-05-18T14:26:13.859Z,3.27
2019-05-18T14:28:42.562Z,3.57
2019-05-18T14:31:11.355Z,4.40
2019-05-18T14:33:39.757Z,3.97
2019-05-18T14:36:08.209Z,3.77
2019-05-18T14:38:36.990Z,4.00
2019-05-18T14:41:05.473Z,3.43
2019-05-18T14:43:33.900Z,4.57
2019-05-18T14:46:02.333Z,4.43
2019-05-18T14:48:31.147Z,4.13
2019-05-18T14:50:59.822Z,4.20
2019-05-18T14:53:28.525Z,3.70
2019-05-18T14:55:57.201Z,3.00
2019-05-18T14:58:25.615Z,3.70
2019-05-18T15:00:54.381Z,3.80
2019-05-18T15:03:23.066Z,4.30
2019-05-18T15:05:51.482Z,4.03
2019-05-18T15:08:20.135Z,3.77
2019-05-18T15:10:48.545Z,4.00
2019-05-18T15:13:16.952Z,3.90
2019-05-18T15:15:45.381Z,4.30
2019-05-18T15:18:14.366Z,4.00
2019-05-18T15:20:42.794Z,3.80
2019-05-18T15:23:11.192Z,4.30
2019-05-18T15:25:50.252Z,3.83
2019-05-18T15:28:09.736Z,4.00
2019-05-18T15:30:38.152Z,3.57
2019-05-18T15:33:06.842Z,4.13
2019-05-18T15:35:35.517Z,3.60
2019-05-18T15:38:03.931Z,4.00
2019-05-18T15:40:32.338Z,3.93
2019-05-18T15:43:00.736Z,4.83
2019-05-18T15:45:29.154Z,3.83
2019-05-18T15:47:57.559Z,4.33
2019-05-18T15:50:25.974Z,3.53
2019-05-18T15:52:54.389Z,4.23
2019-05-18T15:55:22.817Z,5.23
2019-05-18T15:57:51.214Z,5.03
2019-05-18T16:00:20.404Z,5.00
2019-05-18T16:02:48.805Z,5.00
2019-05-18T16:05:17.377Z,5.03
2019-05-18T16:07:45.957Z,5.63
2019-05-18T16:10:16.621Z,4.90
2019-05-18T16:12:45.031Z,5.40
2019-05-18T16:15:13.912Z,5.37
2019-05-18T16:17:42.378Z,4.60
2019-05-18T16:20:13.845Z,4.47
2019-05-18T16:22:44.423Z,4.60
2019-05-18T16:25:12.897Z,3.93
2019-05-18T16:27:41.576Z,3.90
2019-05-18T16:30:11.403Z,4.13
2019-05-18T16:32:39.801Z,4.33
2019-05-18T16:35:10.047Z,4.30
2019-05-18T16:37:38.453Z,4.67
2019-05-18T16:40:08.757Z,4.10
2019-05-18T16:42:37.950Z,5.20
2019-05-18T16:45:08.285Z,4.50
2019-05-18T16:47:38.669Z,4.50
2019-05-18T16:50:08.585Z,5.50
2019-05-18T16:52:37.278Z,5.97
2019-05-18T16:55:09.453Z,6.50
2019-05-18T16:57:37.861Z,6.93
2019-05-18T17:00:11.108Z,6.23
2019-05-18T17:02:39.581Z,6.93
2019-05-18T17:05:08.537Z,8.00
2019-05-18T17:07:37.017Z,9.20
2019-05-18T17:10:06.785Z,7.70
2019-05-18T17:12:35.183Z,8.20
2019-05-18T17:15:05.924Z,8.27
2019-05-18T17:17:35.429Z,7.87
2019-05-18T17:20:04.285Z,7.73
2019-05-18T17:22:32.683Z,8.10
2019-05-18T17:25:01.168Z,7.03
2019-05-18T17:27:29.928Z,9.10
2019-05-18T17:29:58.325Z,11.90
2019-05-18T17:32:26.735Z,10.47
2019-05-18T17:34:55.149Z,14.30
2019-05-18T17:37:23.585Z,11.83
2019-05-18T17:39:52.408Z,10.97
2019-05-18T17:42:20.832Z,11.50
2019-05-18T17:44:49.237Z,10.53
2019-05-18T17:47:17.752Z,10.17
2019-05-18T17:49:46.213Z,10.50
2019-05-18T17:52:14.630Z,10.00
2019-05-18T17:54:43.045Z,10.00
2019-05-18T17:57:11.442Z,11.93
2019-05-18T17:59:40.177Z,16.10
2019-05-18T18:02:08.575Z,9.43
2019-05-18T18:04:36.990Z,9.83
2019-05-18T18:07:05.445Z,9.77
2019-05-18T18:09:33.845Z,9.73
2019-05-18T18:12:02.268Z,9.20
2019-05-18T18:14:30.657Z,10.20
2019-05-18T18:16:59.076Z,11.10
2019-05-18T18:19:33.555Z,11.17
2019-05-18T18:22:02.274Z,10.97
2019-05-18T18:24:30.710Z,10.57
2019-05-18T18:26:59.149Z,11.77
2019-05-18T18:29:27.559Z,11.93
2019-05-18T18:31:56.006Z,12.53
2019-05-18T18:34:24.706Z,12.17
2019-05-18T18:36:53.125Z,13.23
2019-05-18T18:39:21.534Z,14.00
2019-05-18T18:41:49.957Z,14.40
2019-05-18T18:44:18.643Z,15.40
2019-05-18T18:46:47.061Z,15.73
2019-05-18T18:49:15.470Z,17.40
2019-05-18T18:51:44.230Z,17.17
2019-05-18T18:54:12.894Z,16.33
2019-05-18T18:56:41.429Z,16.13
2019-05-18T18:59:09.846Z,16.70
2019-05-18T19:01:38.273Z,18.20
2019-05-18T19:04:06.705Z,17.43
2019-05-18T19:06:35.540Z,15.00
2019-05-18T19:09:05.796Z,14.90
2019-05-18T19:11:34.541Z,16.20
2019-05-18T19:14:04.385Z,15.63
2019-05-18T19:16:32.832Z,14.77
2019-05-18T19:19:01.306Z,16.63
2019-05-18T19:21:29.744Z,14.83
2019-05-18T19:23:58.162Z,17.00
2019-05-18T19:26:26.608Z,16.10
2019-05-18T19:28:55.586Z,15.70
2019-05-18T19:31:24.346Z,16.40
2019-05-18T19:33:53.189Z,18.00
2019-05-18T19:36:21.982Z,16.90
2019-05-18T19:38:50.360Z,17.60
2019-05-18T19:41:18.786Z,16.40
2019-05-18T19:43:47.189Z,16.73
2019-05-18T19:46:15.631Z,16.40
2019-05-18T19:48:44.041Z,16.53
2019-05-18T19:51:12.461Z,16.50
2019-05-18T19:53:40.881Z,17.10
2019-05-18T19:56:09.308Z,17.60
2019-05-18T19:58:37.747Z,16.30
2019-05-18T20:01:06.193Z,17.60
2019-05-18T20:03:34.674Z,17.67
2019-05-18T20:06:04.026Z,17.70
2019-05-18T20:08:32.509Z,16.47
2019-05-18T20:11:00.926Z,18.17
2019-05-18T20:13:29.640Z,16.27
2019-05-18T20:15:58.062Z,17.07
2019-05-18T20:18:26.464Z,19.03
2019-05-18T20:20:54.882Z,17.73
2019-05-18T20:23:23.287Z,17.30
2019-05-18T20:25:51.703Z,18.33
2019-05-18T20:28:23.949Z,17.90
2019-05-18T20:30:50.260Z,18.03
2019-05-18T20:33:18.990Z,19.60
2019-05-18T20:35:47.758Z,18.47
2019-05-18T20:38:16.537Z,18.67
2019-05-18T20:40:45.198Z,15.43
2019-05-18T20:43:13.621Z,18.17
2019-05-18T20:45:42.054Z,17.40
2019-05-18T20:48:10.508Z,15.00
2019-05-18T20:50:38.983Z,17.93
2019-05-18T20:53:07.739Z,17.40
2019-05-18T20:55:36.522Z,17.30
2019-05-18T20:58:05.018Z,17.83
2019-05-18T21:00:33.685Z,19.13
2019-05-18T21:03:02.295Z,19.40
2019-05-18T21:05:30.866Z,18.27
2019-05-18T21:07:59.303Z,18.83
2019-05-18T21:10:27.699Z,18.23
2019-05-18T21:12:56.583Z,17.77
2019-05-18T21:15:25.025Z,18.60
2019-05-18T21:17:53.798Z,17.23
2019-05-18T21:20:22.208Z,17.33
2019-05-18T21:22:50.633Z,16.53
2019-05-18T21:25:19.362Z,17.93
2019-05-18T21:27:48.068Z,16.60
2019-05-18T21:30:16.973Z,17.90
2019-05-18T21:32:45.417Z,18.30
2019-05-18T21:35:13.930Z,17.50
2019-05-18T21:37:42.337Z,17.73
2019-05-18T21:40:11.083Z,17.20
2019-05-18T21:42:39.540Z,18.77
2019-05-18T21:45:08.040Z,17.70
2019-05-18T21:47:36.458Z,16.63
2019-05-18T21:50:08.666Z,15.53
2019-05-18T21:52:37.097Z,17.60
2019-05-18T21:55:09.159Z,17.20
2019-05-18T21:57:37.597Z,16.70
2019-05-18T22:00:08.945Z,18.37
2019-05-18T22:02:37.437Z,18.10
2019-05-18T22:05:06.487Z,17.13
2019-05-18T22:07:34.934Z,18.10
2019-05-18T22:10:05.335Z,19.60
2019-05-18T22:12:33.761Z,18.63
2019-05-18T22:15:02.521Z,16.10
2019-05-18T22:17:32.893Z,17.03
2019-05-18T22:20:01.305Z,19.07
2019-05-18T22:22:29.740Z,18.80
2019-05-18T22:24:58.446Z,21.43
2019-05-18T22:27:27.143Z,23.37
2019-05-18T22:29:55.863Z,22.43
2019-05-18T22:32:24.342Z,21.80
2019-05-18T22:34:52.755Z,20.80
2019-05-18T22:37:21.487Z,18.97
2019-05-18T22:39:50.195Z,21.90
2019-05-18T22:42:18.673Z,21.17
2019-05-18T22:44:47.100Z,21.00
2019-05-18T22:47:15.586Z,20.77
2019-05-18T22:49:44.014Z,18.87
2019-05-18T22:52:12.429Z,19.00
2019-05-18T22:54:41.187Z,18.53
2019-05-18T22:57:09.610Z,18.40
2019-05-18T22:59:38.065Z,19.10
2019-05-18T23:02:06.501Z,19.33
2019-05-18T23:04:34.928Z,19.97
2019-05-18T23:07:03.420Z,18.93
2019-05-18T23:09:31.853Z,18.20
2019-05-18T23:12:00.342Z,19.80
2019-05-18T23:14:28.749Z,19.33
2019-05-18T23:16:57.440Z,18.07
2019-05-18T23:19:25.849Z,17.67
2019-05-18T23:21:54.268Z,18.50
2019-05-18T23:24:23.001Z,18.43
2019-05-18T23:26:51.693Z,19.07
2019-05-18T23:29:20.381Z,19.87
2019-05-18T23:31:49.073Z,18.30
2019-05-18T23:34:17.520Z,18.73
2019-05-18T23:36:46.053Z,19.60
2019-05-18T23:39:14.461Z,14.90
2019-05-18T23:41:42.889Z,18.50
2019-05-18T23:44:11.730Z,18.50
2019-05-18T23:46:40.129Z,17.67
2019-05-18T23:49:10.754Z,17.17
2019-05-18T23:51:38.704Z,19.00
2019-05-18T23:54:07.152Z,18.37
2019-05-18T23:56:35.585Z,19.67
2019-05-18T23:59:04.858Z,17.70
